createdAt,value
2018-02-05T00:00:59.590Z,74.05
2018-02-05T00:02:02.084Z,73.95
2018-02-05T00:03:04.551Z,73.59
2018-02-05T00:04:07.053Z,73.46
2018-02-05T00:05:09.545Z,73.99
2018-02-05T00:06:12.073Z,73.25
2018-02-05T00:07:14.514Z,72.68
2018-02-05T00:08:16.992Z,73.53
2018-02-05T00:09:19.472Z,72.83
2018-02-05T00:10:21.961Z,72.92
2018-02-05T00:11:24.449Z,72.44
2018-02-05T00:12:26.973Z,73.01
2018-02-05T00:13:29.434Z,72.45
2018-02-05T00:14:31.895Z,72.67
2018-02-05T00:15:34.385Z,72.56
2018-02-05T00:16:36.851Z,72.84
2018-02-05T00:17:39.330Z,73.10
2018-02-05T00:18:41.803Z,72.82
2018-02-05T00:19:44.290Z,72.69
2018-02-05T00:20:46.763Z,73.43
2018-02-05T00:21:49.253Z,73.37
2018-02-05T00:22:51.734Z,73.15
2018-02-05T00:23:54.203Z,72.96
2018-02-05T00:24:56.681Z,72.67
2018-02-05T00:25:59.292Z,73.30
2018-02-05T00:27:01.778Z,73.40
2018-02-05T00:28:04.262Z,72.80
2018-02-05T00:29:06.732Z,72.73
2018-02-05T00:30:09.218Z,72.41
2018-02-05T00:31:11.704Z,72.52
2018-02-05T00:32:14.180Z,72.66
2018-02-05T00:33:16.717Z,73.45
2018-02-05T00:34:19.199Z,73.67
2018-02-05T00:35:21.689Z,73.43
2018-02-05T00:36:24.322Z,73.59
2018-02-05T00:37:26.803Z,73.54
2018-02-05T00:38:29.288Z,72.92
2018-02-05T00:39:31.764Z,72.05
2018-02-05T00:40:34.231Z,71.48
2018-02-05T00:41:36.696Z,72.25
2018-02-05T00:42:39.182Z,72.20
2018-02-05T00:43:41.658Z,72.44
2018-02-05T00:44:44.138Z,72.44
2018-02-05T00:45:46.637Z,72.74
2018-02-05T00:46:49.119Z,72.98
2018-02-05T00:47:51.596Z,73.23
2018-02-05T00:48:54.101Z,72.95
2018-02-05T00:49:56.568Z,72.73
2018-02-05T00:50:59.044Z,72.29
2018-02-05T00:52:01.525Z,71.87
2018-02-05T00:53:03.994Z,72.27
2018-02-05T00:54:06.489Z,72.83
2018-02-05T00:55:08.984Z,72.51
2018-02-05T00:56:11.478Z,73.38
2018-02-05T00:57:13.950Z,73.75
2018-02-05T00:58:16.437Z,74.08
2018-02-05T00:59:18.937Z,74.50
2018-02-05T01:00:21.467Z,73.50
2018-02-05T01:01:23.962Z,74.48
2018-02-05T01:02:26.449Z,74.30
2018-02-05T01:03:28.923Z,73.03
2018-02-05T01:04:31.395Z,73.40
2018-02-05T01:05:33.872Z,73.11
2018-02-05T01:06:36.338Z,72.74
2018-02-05T01:07:38.814Z,72.26
2018-02-05T01:08:41.287Z,72.47
2018-02-05T01:09:43.754Z,72.72
2018-02-05T01:10:46.244Z,72.65
2018-02-05T01:11:48.720Z,73.20
2018-02-05T01:12:51.221Z,72.99
2018-02-05T01:13:53.690Z,73.20
2018-02-05T01:14:56.174Z,73.08
2018-02-05T01:15:58.643Z,73.64
2018-02-05T01:17:01.115Z,74.29
2018-02-05T01:18:03.602Z,74.25
2018-02-05T01:19:06.067Z,72.76
2018-02-05T01:20:08.566Z,73.40
2018-02-05T01:21:11.045Z,73.37
2018-02-05T01:22:13.539Z,72.90
2018-02-05T01:23:16.029Z,72.83
2018-02-05T01:24:18.530Z,73.60
2018-02-05T01:25:21.017Z,74.34
2018-02-05T01:26:23.495Z,75.69
2018-02-05T01:27:25.991Z,74.57
2018-02-05T01:28:28.481Z,74.58
2018-02-05T01:29:30.968Z,74.66
2018-02-05T01:30:33.456Z,75.42
2018-02-05T01:31:35.937Z,75.81
2018-02-05T01:32:38.430Z,75.96
2018-02-05T01:33:40.920Z,75.94
2018-02-05T01:34:43.441Z,75.49
2018-02-05T01:35:46.127Z,74.82
2018-02-05T01:36:48.611Z,74.30
2018-02-05T01:37:51.098Z,74.52
2018-02-05T01:38:53.593Z,74.35
2018-02-05T01:39:56.076Z,75.01
2018-02-05T01:40:58.556Z,75.41
2018-02-05T01:42:01.036Z,75.80
2018-02-05T01:43:03.508Z,74.48
2018-02-05T01:44:05.984Z,75.01
2018-02-05T01:45:08.466Z,74.36
2018-02-05T01:46:10.948Z,74.67
2018-02-05T01:47:13.449Z,74.97
2018-02-05T01:48:15.914Z,75.79
2018-02-05T01:49:18.397Z,76.34
2018-02-05T01:50:20.871Z,76.94
2018-02-05T01:51:23.356Z,76.11
2018-02-05T01:52:25.836Z,76.50
2018-02-05T01:53:28.308Z,76.37
2018-02-05T01:54:30.774Z,76.07
2018-02-05T01:55:33.248Z,75.72
2018-02-05T01:56:35.714Z,75.52
2018-02-05T01:57:38.186Z,75.81
2018-02-05T01:58:40.682Z,76.01
2018-02-05T01:59:43.209Z,75.21
2018-02-05T02:00:45.744Z,75.15
2018-02-05T02:01:48.186Z,75.33
2018-02-05T02:02:50.667Z,75.58
2018-02-05T02:03:53.159Z,76.39
2018-02-05T02:04:55.640Z,76.85
2018-02-05T02:05:58.141Z,76.85
2018-02-05T02:07:00.624Z,75.46
2018-02-05T02:08:03.109Z,75.36
2018-02-05T02:09:05.579Z,75.64
2018-02-05T02:10:08.075Z,75.93
2018-02-05T02:11:10.563Z,76.11
2018-02-05T02:12:13.046Z,75.24
2018-02-05T02:13:15.542Z,75.74
2018-02-05T02:14:18.041Z,76.45
2018-02-05T02:15:20.526Z,76.10
2018-02-05T02:16:22.991Z,75.30
2018-02-05T02:17:25.485Z,75.22
2018-02-05T02:18:27.946Z,75.06
2018-02-05T02:19:30.424Z,75.30
2018-02-05T02:20:32.899Z,74.88
2018-02-05T02:21:35.376Z,75.56
2018-02-05T02:22:37.873Z,75.43
2018-02-05T02:23:40.348Z,75.78
2018-02-05T02:24:42.841Z,75.75
2018-02-05T02:25:45.330Z,76.13
2018-02-05T02:26:47.826Z,76.12
2018-02-05T02:27:50.316Z,76.83
2018-02-05T02:28:52.809Z,76.70
2018-02-05T02:29:55.292Z,76.01
2018-02-05T02:30:57.797Z,75.89
2018-02-05T02:32:00.286Z,76.66
2018-02-05T02:33:02.773Z,77.23
2018-02-05T02:34:05.244Z,77.44
2018-02-05T02:35:07.712Z,76.74
2018-02-05T02:36:10.222Z,76.78
2018-02-05T02:37:12.709Z,76.98
2018-02-05T02:38:15.217Z,77.45
2018-02-05T02:39:17.713Z,77.70
2018-02-05T02:40:20.205Z,78.06
2018-02-05T02:41:22.684Z,78.36
2018-02-05T02:42:25.174Z,77.82
2018-02-05T02:43:27.651Z,77.74
2018-02-05T02:44:30.137Z,76.50
2018-02-05T02:45:32.622Z,76.93
2018-02-05T02:46:35.188Z,77.72
2018-02-05T02:47:37.688Z,78.21
2018-02-05T02:48:40.181Z,78.43
2018-02-05T02:49:42.654Z,78.94
2018-02-05T02:50:45.127Z,79.09
2018-02-05T02:51:47.598Z,79.02
2018-02-05T02:52:50.081Z,79.58
2018-02-05T02:53:52.585Z,79.24
2018-02-05T02:54:55.157Z,78.90
2018-02-05T02:55:57.653Z,77.96
2018-02-05T02:57:00.146Z,77.53
2018-02-05T02:58:02.624Z,77.46
2018-02-05T02:59:05.109Z,77.31
2018-02-05T03:00:07.609Z,77.44
2018-02-05T03:01:10.111Z,77.56
2018-02-05T03:02:12.601Z,77.14
2018-02-05T03:03:15.097Z,76.69
2018-02-05T03:04:17.581Z,76.75
2018-02-05T03:05:20.069Z,76.90
2018-02-05T03:06:22.543Z,77.33
2018-02-05T03:07:25.010Z,77.00
2018-02-05T03:08:27.496Z,77.31
2018-02-05T03:09:29.966Z,78.00
2018-02-05T03:10:32.453Z,78.55
2018-02-05T03:11:34.933Z,79.38
2018-02-05T03:12:37.421Z,80.18
2018-02-05T03:13:39.924Z,80.97
2018-02-05T03:14:42.415Z,80.83
2018-02-05T03:15:44.892Z,80.72
2018-02-05T03:16:47.381Z,80.61
2018-02-05T03:17:49.865Z,80.60
2018-02-05T03:18:52.335Z,80.80
2018-02-05T03:19:54.821Z,81.28
2018-02-05T03:20:57.287Z,81.78
2018-02-05T03:21:59.877Z,82.36
2018-02-05T03:23:02.436Z,82.73
2018-02-05T03:25:06.688Z,83.30
2018-02-05T03:26:09.154Z,83.10
2018-02-05T03:27:11.637Z,82.52
2018-02-05T03:28:14.103Z,81.05
2018-02-05T03:29:16.596Z,80.52
2018-02-05T03:30:19.075Z,80.30
2018-02-05T03:31:21.556Z,80.58
2018-02-05T03:32:24.053Z,80.67
2018-02-05T03:33:26.529Z,80.69
2018-02-05T03:34:29.003Z,79.70
2018-02-05T03:35:31.482Z,79.79
2018-02-05T03:36:33.972Z,79.91
2018-02-05T03:37:36.632Z,79.31
2018-02-05T03:38:39.120Z,79.58
2018-02-05T03:39:41.621Z,78.88
2018-02-05T03:40:44.086Z,78.31
2018-02-05T03:41:46.584Z,78.17
2018-02-05T03:42:49.055Z,78.09
2018-02-05T03:43:51.540Z,78.09
2018-02-05T03:44:54.007Z,78.03
2018-02-05T03:45:56.493Z,77.81
2018-02-05T03:46:58.963Z,78.00
2018-02-05T03:48:01.431Z,77.53
2018-02-05T03:49:04.033Z,77.83
2018-02-05T03:50:06.527Z,78.41
2018-02-05T03:51:09.009Z,78.15
2018-02-05T03:52:11.501Z,77.72
2018-02-05T03:53:14.014Z,78.43
2018-02-05T03:54:16.493Z,78.68
2018-02-05T03:55:18.975Z,78.96
2018-02-05T03:56:21.465Z,79.58
2018-02-05T03:57:23.949Z,79.96
2018-02-05T03:58:26.438Z,79.86
2018-02-05T03:59:28.921Z,80.52
2018-02-05T04:00:31.430Z,80.72
2018-02-05T04:01:33.901Z,81.08
2018-02-05T04:02:36.431Z,81.57
2018-02-05T04:03:38.917Z,81.39
2018-02-05T04:04:41.383Z,80.28
2018-02-05T04:05:43.851Z,78.65
2018-02-05T08:40:58.866Z,34.02
2018-02-05T08:42:01.341Z,34.33
2018-02-05T08:43:03.873Z,32.90
2018-02-05T08:44:06.348Z,33.45
2018-02-05T08:45:08.811Z,34.80
2018-02-05T08:46:11.277Z,35.53
2018-02-05T08:47:13.743Z,33.25
2018-02-05T08:48:16.213Z,35.51
2018-02-05T08:49:18.672Z,36.82
2018-02-05T08:50:21.137Z,37.73
2018-02-05T08:51:24.446Z,35.71
2018-02-05T08:52:27.042Z,34.22
2018-02-05T08:53:30.045Z,32.73
2018-02-05T08:54:32.556Z,33.26
2018-02-05T08:55:35.023Z,33.66
2018-02-05T08:56:37.483Z,32.99
2018-02-05T08:57:39.968Z,31.69
2018-02-05T08:58:42.507Z,31.16
2018-02-05T08:59:45.036Z,30.89
2018-02-05T09:00:47.518Z,30.18
2018-02-05T09:01:50.021Z,33.44
2018-02-05T09:02:52.486Z,33.02
2018-02-05T09:03:54.943Z,36.43
2018-02-05T09:04:57.435Z,35.67
2018-02-05T09:05:59.905Z,33.45
2018-02-05T09:07:02.371Z,31.56
2018-02-05T09:08:04.865Z,30.68
2018-02-05T09:09:07.334Z,30.93
2018-02-05T09:10:09.813Z,31.52
2018-02-05T09:11:12.329Z,31.41
2018-02-05T09:12:14.778Z,32.70
2018-02-05T09:13:17.277Z,31.25
2018-02-05T09:14:19.766Z,31.59
2018-02-05T09:15:22.265Z,31.62
2018-02-05T09:16:24.727Z,29.07
2018-02-05T09:17:27.225Z,29.17
2018-02-05T09:18:29.703Z,28.88
2018-02-05T09:19:32.231Z,27.51
2018-02-05T09:20:34.698Z,30.00
2018-02-05T09:21:37.211Z,32.93
2018-02-05T09:22:39.745Z,31.81
2018-02-05T09:23:42.221Z,32.73
2018-02-05T09:24:44.678Z,33.95
2018-02-05T09:25:47.224Z,31.51
2018-02-05T09:26:49.698Z,33.45
2018-02-05T09:27:52.177Z,34.41
2018-02-05T09:28:54.652Z,35.38
2018-02-05T09:29:57.135Z,33.84
2018-02-05T09:30:59.614Z,33.58
2018-02-05T09:32:02.116Z,33.33
2018-02-05T09:33:04.570Z,34.29
2018-02-05T09:34:07.062Z,33.91
2018-02-05T09:35:09.538Z,32.40
2018-02-05T09:36:11.995Z,31.39
2018-02-05T09:37:14.455Z,31.54
2018-02-05T09:38:16.936Z,32.67
2018-02-05T09:39:19.434Z,33.87
2018-02-05T09:40:21.909Z,34.11
2018-02-05T09:41:24.392Z,32.22
2018-02-05T09:42:26.871Z,32.67
2018-02-05T09:43:29.384Z,32.48
2018-02-05T09:44:31.858Z,31.36
2018-02-05T09:45:34.342Z,32.31
2018-02-05T09:46:36.821Z,32.00
2018-02-05T09:47:39.819Z,33.87
2018-02-05T09:48:42.296Z,32.63
2018-02-05T09:49:44.777Z,32.14
2018-02-05T09:50:47.266Z,31.67
2018-02-05T09:51:49.800Z,32.57
2018-02-05T09:52:52.326Z,32.43
2018-02-05T09:53:54.759Z,32.54
2018-02-05T09:54:57.248Z,33.54
2018-02-05T09:55:59.729Z,32.42
2018-02-05T09:57:02.195Z,32.66
2018-02-05T09:58:04.675Z,32.65
2018-02-05T09:59:07.153Z,34.00
2018-02-05T10:00:09.664Z,33.94
2018-02-05T10:01:12.127Z,32.10
2018-02-05T10:02:14.590Z,32.83
2018-02-05T10:03:17.051Z,35.35
2018-02-05T10:04:19.552Z,32.29
2018-02-05T10:05:22.032Z,31.71
2018-02-05T10:06:24.616Z,30.59
2018-02-05T10:07:27.090Z,31.19
2018-02-05T10:08:29.580Z,31.90
2018-02-05T10:09:32.038Z,33.25
2018-02-05T10:10:34.513Z,31.08
2018-02-05T10:11:37.019Z,32.26
2018-02-05T10:12:39.505Z,31.50
2018-02-05T10:13:41.978Z,31.24
2018-02-05T10:14:44.455Z,30.54
2018-02-05T10:15:46.932Z,31.63
2018-02-05T10:16:49.418Z,31.23
2018-02-05T10:17:51.883Z,31.73
2018-02-05T10:18:54.357Z,32.60
2018-02-05T10:19:56.837Z,32.44
2018-02-05T10:20:59.323Z,33.01
2018-02-05T10:22:01.846Z,33.95
2018-02-05T10:23:04.353Z,33.93
2018-02-05T10:24:06.844Z,35.38
2018-02-05T10:25:09.314Z,33.09
2018-02-05T10:26:11.788Z,32.14
2018-02-05T10:27:14.258Z,32.97
2018-02-05T10:28:16.727Z,34.04
2018-02-05T10:29:19.243Z,31.96
2018-02-05T10:30:21.729Z,32.61
2018-02-05T10:31:24.213Z,31.27
2018-02-05T10:32:26.689Z,30.44
2018-02-05T10:33:29.192Z,31.11
2018-02-05T10:34:31.651Z,30.19
2018-02-05T10:35:34.110Z,30.48
2018-02-05T10:36:36.730Z,31.45
2018-02-05T10:37:39.198Z,32.96
2018-02-05T10:38:41.708Z,31.73
2018-02-05T10:39:44.142Z,30.16
2018-02-05T10:40:46.618Z,29.29
2018-02-05T10:41:49.106Z,30.19
2018-02-05T10:42:51.566Z,29.04
2018-02-05T10:43:54.084Z,28.51
2018-02-05T10:44:56.562Z,30.37
2018-02-05T10:45:59.073Z,31.82
2018-02-05T10:47:01.540Z,30.68
2018-02-05T10:48:03.999Z,31.91
2018-02-05T10:49:06.459Z,31.56
2018-02-05T10:50:08.944Z,31.79
2018-02-05T10:51:11.420Z,31.82
2018-02-05T10:52:13.890Z,32.34
2018-02-05T10:53:16.356Z,30.86
2018-02-05T10:54:18.819Z,30.41
2018-02-05T10:55:21.285Z,31.24
2018-02-05T10:56:23.765Z,28.65
2018-02-05T10:57:26.241Z,28.95
2018-02-05T10:58:28.703Z,28.24
2018-02-05T10:59:31.182Z,29.48
2018-02-05T11:00:33.661Z,27.91
2018-02-05T11:01:36.149Z,29.98
2018-02-05T11:02:38.632Z,30.95
2018-02-05T11:03:41.118Z,31.60
2018-02-05T11:04:43.600Z,30.70
2018-02-05T11:05:46.081Z,30.09
2018-02-05T11:06:48.579Z,31.56
2018-02-05T11:07:51.061Z,32.53
2018-02-05T11:08:53.541Z,31.50
2018-02-05T11:09:56.252Z,32.65
2018-02-05T11:10:58.714Z,32.76
2018-02-05T11:12:01.178Z,31.84
2018-02-05T11:13:03.649Z,31.87
2018-02-05T11:14:06.129Z,31.54
2018-02-05T11:15:08.599Z,32.18
2018-02-05T11:16:11.062Z,32.00
2018-02-05T11:17:13.535Z,32.37
2018-02-05T11:18:16.012Z,31.87
2018-02-05T11:19:18.489Z,32.03
2018-02-05T11:20:20.979Z,32.40
2018-02-05T11:21:23.455Z,31.80
2018-02-05T11:22:25.933Z,30.53
2018-02-05T11:23:28.418Z,30.97
2018-02-05T11:24:30.921Z,30.39
2018-02-05T11:25:33.410Z,30.78
2018-02-05T11:26:36.041Z,31.07
2018-02-05T11:27:45.279Z,31.42
2018-02-05T11:28:47.966Z,28.87
2018-02-05T11:29:50.497Z,29.98
2018-02-05T11:30:53.006Z,29.29
2018-02-05T11:31:55.484Z,28.58
2018-02-05T11:32:58.018Z,28.54
2018-02-05T11:34:00.498Z,27.63
2018-02-05T11:35:02.985Z,28.96
2018-02-05T11:36:05.472Z,29.15
2018-02-05T11:37:07.930Z,28.70
2018-02-05T11:38:10.404Z,28.39
2018-02-05T11:39:12.878Z,27.32
2018-02-05T11:40:15.357Z,26.71
2018-02-05T11:41:17.823Z,25.86
2018-02-05T11:42:20.297Z,24.92
2018-02-05T11:43:22.754Z,25.31
2018-02-05T11:44:25.739Z,25.31
2018-02-05T11:45:28.213Z,26.96
2018-02-05T11:46:30.686Z,25.90
2018-02-05T11:47:33.198Z,27.38
2018-02-05T11:48:35.662Z,26.17
2018-02-05T11:49:38.146Z,27.20
2018-02-05T11:50:40.607Z,26.41
2018-02-05T11:51:43.103Z,25.48
2018-02-05T11:52:45.557Z,25.90
2018-02-05T11:53:48.035Z,25.39
2018-02-05T11:54:50.517Z,23.88
2018-02-05T11:55:53.065Z,23.93
2018-02-05T11:56:55.533Z,25.34
2018-02-05T11:57:58.020Z,25.13
2018-02-05T11:59:00.828Z,26.22
2018-02-05T12:00:03.291Z,27.10
2018-02-05T12:01:05.783Z,27.05
2018-02-05T12:02:08.261Z,26.17
2018-02-05T12:03:10.735Z,26.12
2018-02-05T12:04:13.223Z,25.81
2018-02-05T12:05:15.755Z,23.92
2018-02-05T12:06:18.233Z,23.29
2018-02-05T12:07:20.709Z,23.52
2018-02-05T12:08:23.173Z,23.40
2018-02-05T12:09:25.642Z,24.42
2018-02-05T12:10:28.106Z,24.74
2018-02-05T12:11:30.583Z,25.82
2018-02-05T12:12:33.060Z,26.71
2018-02-05T12:13:35.573Z,25.61
2018-02-05T12:14:38.053Z,24.67
2018-02-05T12:15:40.534Z,23.65
2018-02-05T12:16:42.995Z,22.92
2018-02-05T12:17:45.459Z,22.87
2018-02-05T12:18:47.954Z,21.87
2018-02-05T12:19:50.429Z,20.61
2018-02-05T12:20:52.886Z,19.88
2018-02-05T12:21:55.350Z,20.91
2018-02-05T12:22:57.814Z,21.26
2018-02-05T12:24:00.307Z,21.66
2018-02-05T12:25:02.771Z,23.03
2018-02-05T12:26:05.235Z,24.02
2018-02-05T12:27:07.715Z,24.40
2018-02-05T12:28:10.191Z,25.74
2018-02-05T12:29:12.677Z,23.67
2018-02-05T12:30:15.158Z,23.47
2018-02-05T12:31:17.615Z,22.75
2018-02-05T12:32:20.074Z,23.85
2018-02-05T12:33:22.545Z,24.48
2018-02-05T12:34:25.027Z,22.60
2018-02-05T12:35:27.491Z,20.77
2018-02-05T12:36:29.959Z,22.62
2018-02-05T12:37:32.438Z,22.84
2018-02-05T12:38:34.917Z,23.71
2018-02-05T12:39:37.466Z,23.31
2018-02-05T12:40:39.946Z,22.84
2018-02-05T12:41:42.411Z,23.56
2018-02-05T12:42:44.893Z,24.01
2018-02-05T12:43:47.381Z,23.64
2018-02-05T12:44:49.864Z,24.07
2018-02-05T12:45:52.334Z,23.73
2018-02-05T12:46:54.812Z,25.03
2018-02-05T12:47:57.279Z,23.38
2018-02-05T12:48:59.744Z,22.29
2018-02-05T12:50:02.228Z,22.94
2018-02-05T12:51:04.695Z,24.00
2018-02-05T12:52:07.443Z,22.90
2018-02-05T12:53:09.927Z,23.16
2018-02-05T12:54:12.405Z,21.26
2018-02-05T12:55:14.910Z,20.25
2018-02-05T12:56:17.482Z,20.21
2018-02-05T12:57:19.966Z,20.29
2018-02-05T12:58:22.435Z,19.55
2018-02-05T12:59:24.921Z,20.04
2018-02-05T13:00:31.111Z,20.64
2018-02-05T13:01:52.271Z,22.68
2018-02-05T13:03:09.628Z,20.60
2018-02-05T13:04:16.518Z,18.69
2018-02-05T13:05:24.462Z,18.72
2018-02-05T13:06:43.651Z,19.20
2018-02-05T13:07:46.106Z,18.65
2018-02-05T13:08:48.634Z,18.70
2018-02-05T13:09:51.091Z,18.13
2018-02-05T13:10:53.570Z,17.83
2018-02-05T13:11:56.031Z,18.49
2018-02-05T13:12:58.511Z,18.40
2018-02-05T13:14:01.089Z,17.73
2018-02-05T13:15:03.550Z,17.69
2018-02-05T13:16:06.039Z,18.29
2018-02-05T13:17:08.522Z,18.85
2018-02-05T13:18:11.008Z,20.14
2018-02-05T13:19:13.489Z,20.20
2018-02-05T13:20:15.973Z,21.62
2018-02-05T13:21:18.534Z,21.32
2018-02-05T13:22:21.034Z,21.37
2018-02-05T13:23:23.495Z,19.34
2018-02-05T13:24:25.985Z,20.88
2018-02-05T13:25:28.470Z,20.81
2018-02-05T13:26:30.958Z,21.38
2018-02-05T13:27:33.452Z,19.91
2018-02-05T13:28:35.922Z,19.55
2018-02-05T13:29:38.422Z,18.62
2018-02-05T13:30:41.921Z,18.63
2018-02-05T13:31:44.747Z,20.21
2018-02-05T13:32:47.210Z,18.37
2018-02-05T13:33:49.733Z,19.01
2018-02-05T13:34:52.230Z,19.08
2018-02-05T13:35:54.709Z,20.03
2018-02-05T13:36:57.190Z,20.81
2018-02-05T13:37:59.681Z,21.24
2018-02-05T13:39:02.209Z,21.35
2018-02-05T13:40:04.671Z,19.70
2018-02-05T13:41:07.135Z,18.83
2018-02-05T13:42:09.601Z,17.76
2018-02-05T13:43:12.085Z,17.96
2018-02-05T13:44:14.555Z,17.54
2018-02-05T13:45:17.708Z,18.24
2018-02-05T13:46:20.327Z,17.13
2018-02-05T13:47:22.817Z,18.12
2018-02-05T13:48:25.292Z,18.60
2018-02-05T13:49:27.789Z,18.73
2018-02-05T13:50:30.276Z,17.82
2018-02-05T13:51:32.756Z,19.31
2018-02-05T13:52:35.237Z,17.74
2018-02-05T13:53:37.723Z,18.77
2018-02-05T13:54:40.279Z,19.10
2018-02-05T13:55:42.825Z,19.52
2018-02-05T13:56:45.470Z,19.70
2018-02-05T13:57:48.030Z,20.16
2018-02-05T13:58:50.627Z,19.98
2018-02-05T13:59:53.219Z,19.69
2018-02-05T14:00:55.725Z,20.66
2018-02-05T14:01:58.320Z,19.12
2018-02-05T14:03:00.834Z,19.56
2018-02-05T14:04:03.307Z,21.12
2018-02-05T14:05:05.790Z,19.48
2018-02-05T14:06:08.264Z,21.26
2018-02-05T14:07:10.751Z,20.95
2018-02-05T14:08:13.233Z,21.48
2018-02-05T14:09:15.707Z,21.73
2018-02-05T14:10:18.180Z,22.69
2018-02-05T14:11:20.654Z,21.43
2018-02-05T14:12:23.146Z,20.30
2018-02-05T14:13:25.623Z,20.96
2018-02-05T14:14:28.099Z,22.00
2018-02-05T14:15:30.651Z,22.50
2018-02-05T14:16:33.123Z,22.73
2018-02-05T14:17:35.608Z,21.45
2018-02-05T14:18:38.083Z,22.52
2018-02-05T14:19:40.547Z,22.99
2018-02-05T14:20:43.011Z,22.75
2018-02-05T14:21:45.564Z,22.93
2018-02-05T14:22:48.054Z,23.97
2018-02-05T14:23:50.680Z,22.98
2018-02-05T14:24:53.165Z,23.24
2018-02-05T14:25:55.659Z,21.96
2018-02-05T14:26:58.119Z,21.10
2018-02-05T14:28:00.592Z,21.36
2018-02-05T14:29:03.093Z,20.67
2018-02-05T14:30:05.574Z,21.32
2018-02-05T14:31:08.041Z,21.37
2018-02-05T14:32:10.516Z,21.37
2018-02-05T14:33:12.978Z,22.42
2018-02-05T14:34:15.465Z,22.32
2018-02-05T14:35:17.973Z,22.40
2018-02-05T14:36:20.462Z,22.42
2018-02-05T14:37:22.965Z,22.83
2018-02-05T14:38:25.440Z,23.13
2018-02-05T14:39:27.929Z,22.80
2018-02-05T14:40:30.399Z,22.63
2018-02-05T14:41:32.874Z,23.61
2018-02-05T14:42:35.358Z,25.79
2018-02-05T14:43:37.868Z,24.44
2018-02-05T14:44:40.350Z,24.63
2018-02-05T14:45:42.853Z,23.54
2018-02-05T14:46:45.345Z,24.75
2018-02-05T14:47:47.887Z,27.49
2018-02-05T14:48:50.363Z,27.59
2018-02-05T14:49:52.844Z,27.51
2018-02-05T14:50:55.328Z,26.38
2018-02-05T14:51:57.881Z,26.69
2018-02-05T14:53:00.373Z,26.80
2018-02-05T14:54:03.022Z,25.91
2018-02-05T14:55:05.505Z,25.94
2018-02-05T14:56:07.975Z,26.42
2018-02-05T14:57:10.457Z,25.07
2018-02-05T14:58:12.938Z,24.51
2018-02-05T14:59:15.418Z,22.56
2018-02-05T15:00:17.950Z,21.87
2018-02-05T15:01:20.450Z,22.37
2018-02-05T15:02:22.957Z,22.20
2018-02-05T15:03:25.478Z,23.21
2018-02-05T15:04:27.951Z,23.46
2018-02-05T15:05:30.451Z,23.22
2018-02-05T15:06:32.952Z,22.23
2018-02-05T15:07:35.465Z,21.68
2018-02-05T15:08:37.978Z,23.84
2018-02-05T15:09:40.438Z,24.22
2018-02-05T15:10:42.944Z,23.88
2018-02-05T15:11:45.444Z,22.83
2018-02-05T15:12:47.957Z,25.08
2018-02-05T15:13:50.433Z,25.28
2018-02-05T15:14:52.926Z,24.22
2018-02-05T15:15:55.400Z,23.03
2018-02-05T15:16:57.888Z,22.57
2018-02-05T15:18:00.376Z,22.54
2018-02-05T15:19:02.847Z,21.84
2018-02-05T15:20:05.307Z,22.75
2018-02-05T15:21:07.773Z,24.24
2018-02-05T15:22:10.235Z,25.60
2018-02-05T15:23:12.695Z,27.40
2018-02-05T15:24:15.180Z,27.02
2018-02-05T15:25:17.665Z,28.18
2018-02-05T15:26:20.136Z,28.34
2018-02-05T15:27:22.595Z,29.26
2018-02-05T15:28:25.081Z,29.74
2018-02-05T15:29:27.596Z,30.10
2018-02-05T15:30:30.070Z,31.06
2018-02-05T15:31:32.543Z,31.34
2018-02-05T15:32:35.025Z,31.83
2018-02-05T15:33:37.509Z,33.17
2018-02-05T15:34:40.014Z,33.12
2018-02-05T15:35:42.493Z,35.29
2018-02-05T15:36:44.973Z,34.81
2018-02-05T15:37:47.454Z,34.48
2018-02-05T15:38:49.923Z,34.09
2018-02-05T15:39:52.383Z,35.73
2018-02-05T15:40:54.861Z,35.80
2018-02-05T15:41:57.338Z,36.38
2018-02-05T15:42:59.795Z,36.74
2018-02-05T15:44:02.282Z,37.63
2018-02-05T15:45:04.743Z,36.75
2018-02-05T15:46:07.237Z,36.60
2018-02-05T15:47:09.710Z,37.56
2018-02-05T15:48:12.221Z,38.54
2018-02-05T15:49:14.763Z,38.14
2018-02-05T15:50:17.268Z,38.08
2018-02-05T15:51:19.741Z,38.27
2018-02-05T15:52:22.234Z,38.92
2018-02-05T15:53:24.718Z,38.43
2018-02-05T15:54:27.191Z,38.52
2018-02-05T15:55:29.695Z,38.01
2018-02-05T15:56:32.206Z,36.65
2018-02-05T15:57:34.672Z,38.00
2018-02-05T15:58:37.130Z,37.19
2018-02-05T15:59:39.590Z,37.38
2018-02-05T16:00:42.077Z,37.42
2018-02-05T16:01:45.069Z,37.76
2018-02-05T16:02:47.540Z,38.14
2018-02-05T16:03:50.018Z,37.72
2018-02-05T16:04:52.497Z,37.43
2018-02-05T16:05:54.958Z,37.76
2018-02-05T16:06:57.426Z,38.24
2018-02-05T16:07:59.887Z,39.10
2018-02-05T16:09:02.368Z,42.40
2018-02-05T16:10:04.841Z,43.44
2018-02-05T16:11:07.308Z,43.45
2018-02-05T16:12:09.825Z,43.01
2018-02-05T16:13:12.293Z,43.61
2018-02-05T16:14:14.803Z,43.27
2018-02-05T16:15:17.263Z,44.41
2018-02-05T16:16:19.744Z,44.20
2018-02-05T16:17:22.207Z,44.28
2018-02-05T16:18:24.681Z,43.45
2018-02-05T16:19:27.143Z,43.63
2018-02-05T16:20:29.627Z,43.99
2018-02-05T16:21:32.103Z,45.82
2018-02-05T16:22:34.594Z,47.46
2018-02-05T16:23:37.095Z,47.60
2018-02-05T16:24:39.559Z,48.74
2018-02-05T16:25:42.033Z,49.76
2018-02-05T16:26:44.521Z,50.24
2018-02-05T16:27:46.997Z,50.59
2018-02-05T16:28:49.455Z,52.20
2018-02-05T16:29:51.936Z,52.11
2018-02-05T16:30:54.404Z,53.86
2018-02-05T16:31:56.881Z,54.52
2018-02-05T16:32:59.350Z,54.78
2018-02-05T16:34:01.904Z,55.38
2018-02-05T16:35:04.381Z,55.52
2018-02-05T16:36:06.861Z,55.90
2018-02-05T16:37:09.387Z,56.41
2018-02-05T16:38:11.869Z,56.72
2018-02-05T16:39:14.352Z,56.89
2018-02-05T16:40:16.811Z,56.67
2018-02-05T16:41:19.284Z,58.44
2018-02-05T16:42:21.803Z,59.00
2018-02-05T16:43:24.274Z,59.19
2018-02-05T16:44:26.761Z,58.01
2018-02-05T16:45:29.245Z,57.39
2018-02-05T16:46:31.724Z,58.01
2018-02-05T16:47:34.201Z,58.06
2018-02-05T16:48:36.728Z,57.32
2018-02-05T16:49:39.186Z,57.50
2018-02-05T16:50:41.745Z,58.88
2018-02-05T16:51:44.210Z,58.86
2018-02-05T16:52:46.688Z,57.88
2018-02-05T16:53:49.151Z,57.62
2018-02-05T16:54:51.653Z,57.83
2018-02-05T16:55:54.130Z,59.00
2018-02-05T16:56:56.641Z,58.93
2018-02-05T16:57:59.143Z,60.14
2018-02-05T16:59:01.709Z,59.30
2018-02-05T17:00:04.241Z,60.00
2018-02-05T17:01:07.040Z,59.42
2018-02-05T17:02:09.536Z,59.94
2018-02-05T17:03:12.165Z,60.15
2018-02-05T17:04:14.643Z,61.56
2018-02-05T17:05:17.119Z,61.75
2018-02-05T17:06:19.592Z,61.86
2018-02-05T17:07:22.089Z,61.99
2018-02-05T17:08:24.731Z,62.16
2018-02-05T17:09:27.245Z,63.12
2018-02-05T17:10:29.722Z,62.16
2018-02-05T17:11:32.190Z,62.17
2018-02-05T17:12:34.664Z,62.55
2018-02-05T17:13:37.127Z,62.28
2018-02-05T17:14:39.591Z,63.55
2018-02-05T17:15:42.091Z,63.49
2018-02-05T17:16:44.621Z,63.28
2018-02-05T17:17:47.087Z,62.76
2018-02-05T17:18:49.609Z,63.00
2018-02-05T17:19:52.086Z,63.35
2018-02-05T17:20:54.557Z,63.30
2018-02-05T17:21:57.088Z,63.24
2018-02-05T17:22:59.642Z,63.63
2018-02-05T17:24:02.465Z,63.30
2018-02-05T17:25:05.153Z,63.83
2018-02-05T17:26:07.749Z,64.26
2018-02-05T17:27:10.261Z,64.58
2018-02-05T17:28:12.762Z,64.14
2018-02-05T17:29:16.709Z,63.99
2018-02-05T17:30:19.338Z,63.56
2018-02-05T17:31:21.953Z,64.07
2018-02-05T17:32:25.287Z,64.88
2018-02-05T17:33:31.030Z,64.81
2018-02-05T17:34:33.544Z,64.92
2018-02-05T17:35:36.095Z,65.75
2018-02-05T17:36:38.571Z,65.57
2018-02-05T17:37:41.064Z,65.16
2018-02-05T17:38:44.020Z,64.79
2018-02-05T17:39:47.071Z,64.89
2018-02-05T17:40:49.553Z,64.82
2018-02-05T17:41:52.056Z,65.10
2018-02-05T17:42:54.522Z,64.98
2018-02-05T17:43:57.067Z,65.11
2018-02-05T17:44:59.686Z,65.58
2018-02-05T17:46:02.569Z,66.10
2018-02-05T17:47:05.057Z,66.76
2018-02-05T17:48:08.005Z,66.86
2018-02-05T17:49:10.477Z,66.87
2018-02-05T17:50:12.961Z,67.46
2018-02-05T17:51:15.956Z,66.16
2018-02-05T17:52:18.830Z,66.78
2018-02-05T17:53:21.628Z,66.51
2018-02-05T17:54:24.305Z,66.47
2018-02-05T17:55:26.828Z,65.75
2018-02-05T17:56:29.321Z,65.89
2018-02-05T17:57:31.809Z,66.22
2018-02-05T17:58:34.792Z,66.21
2018-02-05T17:59:37.317Z,66.74
2018-02-05T18:00:39.961Z,66.41
2018-02-05T18:01:42.600Z,66.09